Time;durP1;ratioP1;P1;durP2;ratioP2;P2;SDS_P1;SDS_P2;PMS_P1;PMS_P2;Temp;Humidity;BMP_temperature;BMP_pressure;BME280_temperature;BME280_humidity;BME280_pressure;Samples;Min_cycle;Max_cycle;Signal;HPM_P1;HPM_P2
2023/08/28 00:09:00;;;;;;;3.80;1.83;;;;;;;11.80;100.00;95520.44;7437494;19;20416;-93
2023/08/28 00:11:44;;;;;;;6.30;2.70;;;;;;;12.03;100.00;95546.19;7434875;19;20388;-95
2023/08/28 00:14:16;;;;;;;2.40;1.97;;;;;;;11.82;100.00;95494.38;7434497;19;20385;-94
2023/08/28 00:16:54;;;;;;;2.63;2.43;;;;;;;11.89;100.00;95532.69;7435077;19;20435;-94
2023/08/28 00:19:45;;;;;;;2.63;2.07;;;;;;;11.64;100.00;95500.47;7434894;19;20393;-95
2023/08/28 00:22:41;;;;;;;2.80;2.17;;;;;;;11.21;100.00;95447.53;7433918;19;20413;-95
2023/08/28 00:25:12;;;;;;;3.30;2.13;;;;;;;10.72;100.00;95362.03;7436699;19;20389;-94
2023/08/28 00:27:54;;;;;;;3.00;2.57;;;;;;;11.83;100.00;95527.69;7433425;19;20425;-95
2023/08/28 00:30:38;;;;;;;2.50;2.30;;;;;;;11.91;100.00;95535.75;7431621;19;20376;-94
2023/08/28 00:33:06;;;;;;;4.00;2.50;;;;;;;11.45;100.00;95501.25;7432866;19;20409;-95
2023/08/28 00:35:43;;;;;;;2.50;2.30;;;;;;;11.10;100.00;95420.16;7433834;19;20397;-95
2023/08/28 00:38:12;;;;;;;2.77;2.57;;;;;;;10.70;100.00;95348.41;7433626;19;20427;-94
2023/08/28 00:40:46;;;;;;;4.90;2.30;;;;;;;11.68;100.00;95478.22;7434051;19;20384;-93
2023/08/28 00:43:28;;;;;;;2.30;2.13;;;;;;;11.64;100.00;95482.72;7432929;19;20396;-95
2023/08/28 00:46:13;;;;;;;7.53;2.50;;;;;;;10.43;100.00;95306.03;7434415;19;20404;-94
2023/08/28 00:48:50;;;;;;;4.63;2.60;;;;;;;11.11;100.00;95389.19;7433825;19;20389;-95
2023/08/28 00:51:23;;;;;;;6.77;2.50;;;;;;;10.98;100.00;95395.75;7431712;19;20372;-94
2023/08/28 00:53:58;;;;;;;4.80;2.43;;;;;;;10.33;100.00;95307.34;7434323;19;20396;-95
2023/08/28 00:56:35;;;;;;;6.70;3.03;;;;;;;12.61;100.00;95631.53;7428147;19;20436;-94
2023/08/28 00:59:21;;;;;;;3.40;2.30;;;;;;;10.42;100.00;95315.06;7434861;19;20400;-94
2023/08/28 01:01:53;;;;;;;2.73;2.53;;;;;;;11.49;100.00;95479.06;7433786;19;20384;-95
2023/08/28 01:04:43;;;;;;;3.47;2.07;;;;;;;10.40;100.00;95311.22;7430634;19;20396;-95
2023/08/28 01:07:45;;;;;;;11.77;2.53;;;;;;;10.26;100.00;95283.44;7428441;19;20444;-94
2023/08/28 01:34:53;;;;;;;5.10;3.03;;;;;;;12.69;100.00;95605.88;7350605;19;20447;-95
2023/08/28 01:37:51;;;;;;;7.97;2.60;;;;;;;10.72;100.00;95319.75;7430489;19;20423;-95
2023/08/28 01:49:32;;;;;;;3.00;2.70;;;;;;;10.59;100.00;95340.28;7385989;19;20432;-95
2023/08/28 01:52:07;;;;;;;3.60;2.70;;;;;;;12.05;100.00;95551.88;7428110;19;20417;-95
2023/08/28 01:54:47;;;;;;;5.40;2.80;;;;;;;11.54;100.00;95459.47;7433277;19;20380;-96
2023/08/28 01:57:35;;;;;;;3.20;2.90;;;;;;;10.42;100.00;95299.22;7432632;19;20455;-96
2023/08/28 04:14:29;;;;;;;3.90;3.60;;;;;;;10.34;100.00;95284.34;7434207;19;20409;-96
2023/08/28 06:10:09;;;;;;;6.53;5.93;;;;;;;10.16;100.00;95318.31;7397564;19;20452;-96
2023/08/28 06:12:43;;;;;;;10.47;6.40;;;;;;;10.52;100.00;95369.97;7428360;19;20384;-94
2023/08/28 06:15:21;;;;;;;6.73;6.13;;;;;;;10.26;100.00;95323.06;7431704;19;20392;-93
2023/08/28 06:17:55;;;;;;;8.77;7.93;;;;;;;10.87;100.00;95401.59;7429651;19;20476;-94
2023/08/28 06:20:26;;;;;;;9.10;7.80;;;;;;;11.10;100.00;95433.38;7432368;19;20381;-95
2023/08/28 06:22:54;;;;;;;9.53;8.70;;;;;;;10.23;100.00;95288.66;7431254;19;20397;-95
2023/08/28 06:25:22;;;;;;;7.83;7.03;;;;;;;11.74;100.00;95503.28;7432549;19;20392;-95
2023/08/28 06:27:57;;;;;;;8.63;7.83;;;;;;;10.22;100.00;95281.84;7429678;19;20424;-96
2023/08/28 06:30:39;;;;;;;9.10;8.00;;;;;;;10.00;100.00;95268.19;7429776;19;20416;-96
2023/08/28 06:33:07;;;;;;;8.53;7.60;;;;;;;11.15;100.00;95419.09;7429909;19;20393;-96
2023/08/28 06:35:40;;;;;;;8.67;8.00;;;;;;;9.75;100.00;95206.25;7429859;19;20436;-95
2023/08/28 06:38:24;;;;;;;8.70;7.90;;;;;;;11.81;100.00;95513.25;7429893;19;20431;-96
2023/08/28 06:41:08;;;;;;;9.07;8.17;;;;;;;11.07;100.00;95378.50;7430199;19;20388;-96
2023/08/28 06:43:39;;;;;;;10.30;9.40;;;;;;;11.21;100.00;95383.28;7429638;19;20406;-95
2023/08/28 06:46:11;;;;;;;11.30;8.47;;;;;;;11.15;100.00;95361.66;7431192;19;20397;-95
2023/08/28 06:48:48;;;;;;;8.80;7.90;;;;;;;11.49;100.00;95401.53;7429780;19;20466;-95
2023/08/28 06:51:22;;;;;;;9.10;8.20;;;;;;;12.30;100.00;95562.88;7431832;19;20401;-95
2023/08/28 06:53:52;;;;;;;9.33;8.50;;;;;;;11.19;100.00;95356.41;7430018;19;20397;-96
2023/08/28 06:56:25;;;;;;;8.50;7.70;;;;;;;10.72;100.00;95258.94;7429054;19;20381;-95
2023/08/28 06:58:54;;;;;;;7.70;6.83;;;;;;;11.33;100.00;95390.28;7430378;19;20381;-95
2023/08/28 07:01:27;;;;;;;8.90;7.37;;;;;;;10.34;100.00;95234.13;7428836;19;20381;-96
2023/08/28 07:03:55;;;;;;;7.40;6.77;;;;;;;10.34;100.00;95236.78;7430957;19;20402;-95
2023/08/28 07:06:23;;;;;;;9.27;6.97;;;;;;;10.43;100.00;95210.16;7429542;19;20389;-96
2023/08/28 07:08:53;;;;;;;7.57;6.87;;;;;;;10.60;100.00;95234.22;7430297;19;20387;-95
2023/08/28 07:11:39;;;;;;;7.77;7.17;;;;;;;12.59;100.00;95524.28;7429136;19;20405;-95
2023/08/28 07:14:06;;;;;;;8.63;5.80;;;;;;;10.51;100.00;95223.09;7428053;19;20400;-95
2023/08/28 07:16:37;;;;;;;6.77;4.60;;;;;;;12.49;100.00;95509.75;7429762;19;20428;-95
2023/08/28 07:19:05;;;;;;;5.73;5.23;;;;;;;10.92;100.00;95244.53;7434733;19;20395;-96
2023/08/28 07:21:48;;;;;;;6.00;5.50;;;;;;;10.70;100.00;95203.03;7437276;19;20416;-95
2023/08/28 07:24:22;;;;;;;4.40;4.00;;;;;;;10.40;100.00;95190.44;7436290;19;20433;-96
2023/08/28 07:26:52;;;;;;;5.57;4.73;;;;;;;10.89;100.00;95256.56;7436908;19;20444;-96
2023/08/28 07:29:19;;;;;;;5.53;4.67;;;;;;;11.58;100.00;95327.16;7436679;19;20436;-96
2023/08/28 10:44:17;;;;;;;7.27;6.63;;;;;;;11.65;100.00;95433.94;7420821;19;20464;-94
2023/08/28 10:47:00;;;;;;;6.43;5.80;;;;;;;12.89;100.00;95564.84;7432986;19;20416;-93
2023/08/28 10:49:34;;;;;;;6.63;6.03;;;;;;;12.67;100.00;95539.91;7433884;19;20360;-95
2023/08/28 10:52:06;;;;;;;6.97;6.30;;;;;;;11.32;100.00;95333.19;7432242;19;20372;-94
2023/08/28 10:54:45;;;;;;;6.40;5.80;;;;;;;12.55;100.00;95465.13;7438536;19;20410;-94
2023/08/28 10:57:28;;;;;;;7.33;6.73;;;;;;;10.79;100.00;95203.53;7439461;19;20459;-94
2023/08/28 11:00:14;;;;;;;8.20;5.70;;;;;;;12.58;100.00;95473.13;7439201;19;20349;-94
2023/08/28 11:03:17;;;;;;;7.03;5.83;;;;;;;11.60;100.00;95285.94;7438441;19;20411;-95
2023/08/28 11:06:32;;;;;;;6.87;5.87;;;;;;;12.06;100.00;95342.22;7441247;19;20365;-94
2023/08/28 11:12:53;;;;;;;6.53;6.03;;;;;;;11.74;100.00;95235.06;7439403;19;20418;-94
2023/08/28 14:47:08;;;;;;;2.97;2.67;;;;;;;13.21;100.00;95400.69;7434325;19;20385;-94
2023/08/28 14:49:35;;;;;;;3.63;3.07;;;;;;;13.16;100.00;95403.66;7439189;19;20397;-95
2023/08/28 14:52:03;;;;;;;3.53;2.97;;;;;;;12.89;100.00;95365.88;7437621;19;20384;-94
2023/08/28 14:54:30;;;;;;;3.90;2.80;;;;;;;11.64;100.00;95231.19;7435386;19;20441;-95
2023/08/28 14:56:57;;;;;;;4.00;3.53;;;;;;;13.04;100.00;95422.50;7431766;19;20384;-94
2023/08/28 14:59:25;;;;;;;4.40;2.80;;;;;;;13.14;100.00;95442.31;7433127;19;20384;-93
2023/08/28 15:01:53;;;;;;;4.10;3.03;;;;;;;12.30;100.00;95317.16;7435603;19;20380;-96
2023/08/28 15:04:20;;;;;;;2.90;2.70;;;;;;;12.34;100.00;95343.69;7432595;19;20436;-95
2023/08/28 15:06:47;;;;;;;3.53;3.23;;;;;;;12.72;100.00;95409.66;7434253;19;20384;-94
2023/08/28 15:09:17;;;;;;;8.03;3.90;;;;;;;12.78;100.00;95417.28;7435124;19;20377;-94
2023/08/28 15:11:44;;;;;;;4.13;3.83;;;;;;;13.05;100.00;95449.78;7436720;19;20425;-96
2023/08/28 15:14:11;;;;;;;3.90;3.53;;;;;;;11.74;100.00;95267.59;7432621;19;20428;-94
2023/08/28 15:16:39;;;;;;;4.10;3.80;;;;;;;11.57;100.00;95236.38;7436456;19;20389;-94
2023/08/28 15:19:06;;;;;;;4.07;3.77;;;;;;;11.75;100.00;95247.19;7435875;19;20385;-94
2023/08/28 15:21:33;;;;;;;3.07;2.87;;;;;;;12.40;100.00;95358.13;7437297;19;20418;-96
2023/08/28 15:24:00;;;;;;;4.80;4.40;;;;;;;11.99;100.00;95315.63;7431581;19;20464;-93
2023/08/28 15:26:27;;;;;;;3.70;3.40;;;;;;;11.84;100.00;95255.66;7431387;19;20372;-94
2023/08/28 15:28:55;;;;;;;4.50;3.77;;;;;;;12.54;100.00;95384.03;7433825;19;20397;-93
2023/08/28 15:31:22;;;;;;;4.50;4.13;;;;;;;11.82;100.00;95297.63;7431357;19;20399;-94
2023/08/28 15:33:49;;;;;;;4.50;4.10;;;;;;;12.13;100.00;95368.03;7431464;19;20420;-94
2023/08/28 15:36:16;;;;;;;3.60;3.30;;;;;;;12.21;100.00;95396.16;7435481;19;20436;-94
2023/08/28 15:38:43;;;;;;;5.70;3.40;;;;;;;11.64;100.00;95307.97;7432726;19;20392;-94
2023/08/28 15:41:11;;;;;;;4.13;3.73;;;;;;;11.02;100.00;95233.34;7435132;19;20381;-94
2023/08/28 15:43:39;;;;;;;4.40;4.00;;;;;;;11.55;100.00;95326.75;7432258;19;20431;-94
2023/08/28 15:46:06;;;;;;;6.43;5.10;;;;;;;12.04;100.00;95407.28;7435200;19;20564;-94
2023/08/28 15:48:33;;;;;;;4.33;3.77;;;;;;;11.33;100.00;95327.53;7434284;19;20381;-95
2023/08/28 15:51:03;;;;;;;3.97;3.60;;;;;;;11.54;100.00;95348.28;7434889;19;20412;-93
2023/08/28 15:53:31;;;;;;;3.93;3.63;;;;;;;11.78;100.00;95414.06;7431541;19;20421;-95
2023/08/28 15:55:58;;;;;;;4.17;3.87;;;;;;;11.02;100.00;95304.75;7435369;19;20396;-93
2023/08/28 15:58:27;;;;;;;5.10;4.60;;;;;;;10.59;100.00;95210.78;7433844;19;20420;-94
2023/08/28 16:01:01;;;;;;;5.90;4.50;;;;;;;12.07;100.00;95433.06;7434758;19;20444;-93
2023/08/28 16:03:29;;;;;;;4.47;4.07;;;;;;;11.13;100.00;95320.81;7431515;19;20432;-94
2023/08/28 16:05:56;;;;;;;4.87;4.47;;;;;;;11.52;100.00;95353.16;7429010;19;20369;-94
2023/08/28 16:08:23;;;;;;;5.20;4.80;;;;;;;10.25;100.00;95191.31;7433252;19;20398;-94
2023/08/28 16:10:50;;;;;;;5.47;4.97;;;;;;;11.10;100.00;95343.44;7432395;19;20393;-93
2023/08/28 16:13:17;;;;;;;5.47;4.60;;;;;;;11.25;100.00;95408.69;7434395;19;20433;-94
2023/08/28 16:15:46;;;;;;;5.93;5.43;;;;;;;11.31;100.00;95413.69;7432248;19;20392;-94
2023/08/28 16:18:14;;;;;;;5.20;4.83;;;;;;;11.26;100.00;95414.75;7433950;19;20385;-94
2023/08/28 16:20:45;;;;;;;5.70;5.23;;;;;;;9.89;100.00;95195.97;7431230;19;20385;-95
2023/08/28 16:23:13;;;;;;;6.13;4.97;;;;;;;9.40;100.00;95143.75;7433421;19;20448;-93
2023/08/28 16:25:41;;;;;;;5.63;5.13;;;;;;;10.53;100.00;95278.25;7431650;19;20389;-93
2023/08/28 16:28:10;;;;;;;7.10;6.40;;;;;;;10.20;100.00;95253.13;7433140;19;20432;-93
2023/08/28 16:30:37;;;;;;;6.77;6.17;;;;;;;10.45;100.00;95292.47;7432890;19;20400;-93
2023/08/28 16:33:06;;;;;;;6.67;5.60;;;;;;;10.68;100.00;95295.88;7428951;19;20432;-93
2023/08/28 16:35:34;;;;;;;6.47;5.87;;;;;;;10.29;100.00;95263.50;7431701;19;20392;-93
2023/08/28 16:38:01;;;;;;;6.40;5.80;;;;;;;10.69;100.00;95341.59;7430671;19;20397;-94
2023/08/28 16:40:29;;;;;;;7.23;6.50;;;;;;;10.22;100.00;95276.56;7431657;19;20404;-94
2023/08/28 16:42:58;;;;;;;7.20;6.60;;;;;;;9.92;100.00;95237.50;7431925;19;20429;-93
2023/08/28 16:45:26;;;;;;;6.07;5.67;;;;;;;10.02;100.00;95258.06;7430720;19;20440;-93
2023/08/28 16:47:53;;;;;;;9.47;6.60;;;;;;;10.93;100.00;95376.38;7432083;19;20383;-94
2023/08/28 16:50:20;;;;;;;7.50;6.73;;;;;;;10.21;100.00;95238.81;7417340;19;20377;-94
2023/08/28 16:52:47;;;;;;;6.33;5.83;;;;;;;10.89;100.00;95351.00;7427208;19;20426;-94
2023/08/28 16:55:14;;;;;;;6.63;6.03;;;;;;;10.33;100.00;95275.66;7427340;19;20428;-93
2023/08/28 16:57:41;;;;;;;7.80;6.57;;;;;;;10.20;100.00;95244.44;7434344;19;20397;-94
2023/08/28 17:00:09;;;;;;;6.93;6.30;;;;;;;9.85;100.00;95184.56;7432230;19;20392;-94
2023/08/28 17:02:40;;;;;;;10.43;7.93;;;;;;;10.90;100.00;95341.97;7423193;19;20412;-94
2023/08/28 17:05:07;;;;;;;11.00;8.27;;;;;;;11.05;100.00;95370.19;7409627;19;20397;-94
2023/08/28 17:07:34;;;;;;;6.17;5.47;;;;;;;10.20;100.00;95241.78;7408707;19;20393;-94
2023/08/28 17:10:03;;;;;;;6.23;5.70;;;;;;;10.06;100.00;95219.28;7408280;19;20401;-94
2023/08/28 17:12:31;;;;;;;10.87;6.07;;;;;;;10.53;100.00;95286.94;7406599;19;20383;-93
2023/08/28 17:14:59;;;;;;;6.70;6.10;;;;;;;9.51;100.00;95177.50;7417160;19;20406;-94
2023/08/28 17:17:26;;;;;;;7.03;5.37;;;;;;;10.73;100.00;95337.13;7428614;19;20388;-94
2023/08/28 17:19:53;;;;;;;5.90;5.40;;;;;;;10.41;100.00;95310.88;7430766;19;20395;-95
2023/08/28 17:22:20;;;;;;;5.57;5.07;;;;;;;9.64;100.00;95200.00;7431968;19;20392;-95
2023/08/28 17:24:47;;;;;;;5.13;4.73;;;;;;;9.89;100.00;95246.13;7433052;19;20402;-95
2023/08/28 17:27:14;;;;;;;5.87;5.30;;;;;;;10.92;100.00;95393.38;7417923;19;20432;-94
2023/08/28 17:29:41;;;;;;;5.90;5.40;;;;;;;11.03;100.00;95406.78;7408020;19;20392;-94
2023/08/28 17:32:08;;;;;;;5.73;5.23;;;;;;;10.38;100.00;95313.47;7406689;19;20380;-94
2023/08/28 17:34:35;;;;;;;6.13;5.30;;;;;;;9.92;100.00;95252.59;7408206;19;20441;-93
2023/08/28 17:37:02;;;;;;;5.83;5.23;;;;;;;10.81;100.00;95375.78;7405784;19;20377;-94
2023/08/28 17:39:29;;;;;;;5.90;5.40;;;;;;;10.03;100.00;95270.16;7409101;19;20416;-93
2023/08/28 17:41:57;;;;;;;5.97;4.77;;;;;;;9.86;100.00;95265.28;7404811;19;20365;-93
2023/08/28 17:44:26;;;;;;;4.90;4.50;;;;;;;10.48;100.00;95344.59;7410663;19;20436;-94
2023/08/28 17:46:54;;;;;;;6.10;5.50;;;;;;;10.90;100.00;95429.22;7414988;19;20388;-94
2023/08/28 17:49:21;;;;;;;6.13;5.47;;;;;;;11.06;100.00;95442.34;7417703;19;20381;-94
2023/08/28 17:51:48;;;;;;;5.43;5.00;;;;;;;10.55;100.00;95371.94;7407025;19;20368;-93
2023/08/28 17:54:16;;;;;;;5.33;4.70;;;;;;;10.38;100.00;95390.06;7407805;19;20451;-92
2023/08/28 17:56:45;;;;;;;5.63;5.13;;;;;;;9.50;100.00;95231.38;7404383;19;20373;-93
2023/08/28 17:59:12;;;;;;;6.03;5.43;;;;;;;10.85;100.00;95438.22;7408022;19;20393;-93
2023/08/28 18:01:40;;;;;;;5.80;5.00;;;;;;;10.43;100.00;95380.00;7400853;19;20380;-94
2023/08/28 18:04:10;;;;;;;5.77;5.30;;;;;;;10.61;100.00;95401.50;7405639;19;20420;-93
2023/08/28 18:06:38;;;;;;;8.20;5.83;;;;;;;9.78;100.00;95282.09;7403186;19;20444;-94
2023/08/28 18:09:05;;;;;;;6.50;5.73;;;;;;;10.43;100.00;95387.19;7404334;19;20448;-94
2023/08/28 18:11:32;;;;;;;5.50;5.10;;;;;;;9.90;100.00;95303.09;7402647;19;20383;-93
2023/08/28 18:13:59;;;;;;;6.00;5.50;;;;;;;10.62;100.00;95390.56;7399103;19;20429;-94
2023/08/28 18:16:26;;;;;;;7.07;6.50;;;;;;;9.83;100.00;95287.09;7402866;19;20384;-95
2023/08/28 18:18:56;;;;;;;8.47;5.63;;;;;;;9.24;100.00;95195.03;7407584;19;20380;-95
2023/08/28 18:21:23;;;;;;;6.93;6.20;;;;;;;10.13;100.00;95352.56;7422949;19;20385;-95
2023/08/28 18:23:51;;;;;;;5.97;5.57;;;;;;;10.54;100.00;95425.13;7419644;19;20457;-95
2023/08/28 18:26:19;;;;;;;7.77;7.00;;;;;;;9.80;100.00;95282.50;7426785;19;20412;-94
2023/08/28 18:28:46;;;;;;;7.40;6.70;;;;;;;10.23;100.00;95376.59;7426473;19;20500;-94
2023/08/28 18:31:14;;;;;;;8.00;7.00;;;;;;;9.15;100.00;95217.09;7429457;19;20404;-94
2023/08/28 18:33:42;;;;;;;7.80;7.20;;;;;;;9.32;100.00;95265.28;7424480;19;20425;-94
2023/08/28 18:36:09;;;;;;;8.40;7.77;;;;;;;9.81;100.00;95362.47;7424102;19;20385;-94
2023/08/28 18:38:37;;;;;;;9.67;8.87;;;;;;;10.17;100.00;95424.72;7418397;19;20391;-94
2023/08/28 18:41:04;;;;;;;8.87;8.17;;;;;;;10.10;100.00;95400.81;7419088;19;20420;-94
2023/08/28 18:43:32;;;;;;;9.73;9.03;;;;;;;9.27;100.00;95265.56;7415499;19;20436;-94
2023/08/28 18:45:59;;;;;;;9.07;8.37;;;;;;;10.22;100.00;95395.44;7416542;19;20397;-93
2023/08/28 18:48:26;;;;;;;9.93;9.13;;;;;;;10.05;100.00;95405.25;7413845;19;20376;-94
2023/08/28 18:50:53;;;;;;;9.80;8.93;;;;;;;10.21;100.00;95436.13;7415931;19;20448;-94
2023/08/28 18:53:21;;;;;;;10.30;9.50;;;;;;;9.73;100.00;95350.97;7413518;19;20435;-93
2023/08/28 18:55:55;;;;;;;9.47;8.77;;;;;;;9.54;100.00;95340.38;7414574;19;20377;-94
2023/08/28 18:58:22;;;;;;;9.97;9.17;;;;;;;9.57;100.00;95332.53;7411029;19;20400;-93
2023/08/28 19:00:52;;;;;;;12.07;10.97;;;;;;;9.67;100.00;95355.00;7413977;19;20393;-94
2023/08/28 19:03:19;;;;;;;11.27;10.40;;;;;;;9.96;100.00;95388.06;7412860;19;20464;-94
2023/08/28 19:05:46;;;;;;;10.40;9.50;;;;;;;9.95;100.00;95376.72;7408834;19;20401;-94
2023/08/28 19:08:13;;;;;;;10.63;9.63;;;;;;;10.42;100.00;95441.13;7421528;19;20415;-94
2023/08/28 19:10:41;;;;;;;9.13;8.40;;;;;;;10.29;100.00;95445.78;7432368;19;20373;-95
2023/08/28 19:13:08;;;;;;;9.53;8.53;;;;;;;9.69;100.00;95326.38;7425879;19;20428;-94
2023/08/28 19:15:38;;;;;;;9.30;8.50;;;;;;;9.64;100.00;95350.41;7413533;19;20401;-93
2023/08/28 19:18:06;;;;;;;10.10;9.30;;;;;;;10.15;100.00;95437.50;7416673;19;20385;-94
2023/08/28 19:20:36;;;;;;;10.43;9.47;;;;;;;9.40;100.00;95327.66;7419668;19;20384;-94
2023/08/28 19:23:16;;;;;;;10.43;9.53;;;;;;;9.43;100.00;95330.34;7421057;19;20420;-94
2023/08/28 19:25:46;;;;;;;10.20;9.50;;;;;;;8.77;100.00;95220.38;7422260;19;20397;-93
2023/08/28 19:28:13;;;;;;;10.83;9.80;;;;;;;10.03;100.00;95449.72;7422612;19;20416;-94
2023/08/28 19:30:41;;;;;;;10.27;9.33;;;;;;;10.00;100.00;95431.13;7422006;19;20397;-94
2023/08/28 19:33:09;;;;;;;9.77;8.93;;;;;;;9.10;100.00;95333.38;7420960;19;20440;-94
2023/08/28 19:35:37;;;;;;;9.90;9.13;;;;;;;9.88;100.00;95447.88;7418901;19;20416;-94
2023/08/28 19:38:04;;;;;;;11.60;9.50;;;;;;;9.79;100.00;95439.38;7419997;19;20381;-94
2023/08/28 19:40:33;;;;;;;9.13;8.27;;;;;;;9.30;100.00;95347.38;7425009;19;20377;-94
2023/08/28 19:43:00;;;;;;;9.40;8.60;;;;;;;8.34;100.00;95249.38;7420888;19;20424;-93
2023/08/28 19:45:27;;;;;;;9.33;8.63;;;;;;;9.10;100.00;95351.81;7420828;19;20448;-94
2023/08/28 19:47:54;;;;;;;9.53;8.63;;;;;;;9.91;100.00;95467.53;7421364;19;20440;-93
2023/08/28 19:50:21;;;;;;;9.60;8.90;;;;;;;9.34;100.00;95381.75;7421275;19;20389;-94
2023/08/28 19:52:48;;;;;;;10.80;9.83;;;;;;;9.55;100.00;95439.53;7413479;19;20397;-94
2023/08/28 19:55:16;;;;;;;8.33;7.73;;;;;;;8.28;100.00;95240.97;7414095;19;20381;-93
2023/08/28 19:57:43;;;;;;;10.73;8.60;;;;;;;8.52;100.00;95271.69;7421317;19;20408;-94
2023/08/28 20:00:11;;;;;;;10.20;9.43;;;;;;;9.89;100.00;95469.78;7415768;19;20396;-93
2023/08/28 20:02:42;;;;;;;8.63;7.93;;;;;;;9.11;100.00;95324.34;7422041;19;20419;-94
2023/08/28 20:05:11;;;;;;;8.17;7.67;;;;;;;9.40;100.00;95378.53;7422169;19;20389;-94
2023/08/28 20:07:38;;;;;;;8.20;7.60;;;;;;;9.80;100.00;95414.50;7423781;19;20489;-94
2023/08/28 20:10:05;;;;;;;9.03;8.33;;;;;;;9.64;100.00;95395.28;7424329;19;20404;-93
2023/08/28 20:12:33;;;;;;;8.37;7.53;;;;;;;9.02;100.00;95318.47;7420949;19;20393;-94
2023/08/28 20:15:00;;;;;;;10.70;9.80;;;;;;;8.98;100.00;95286.00;7420115;19;20400;-93
2023/08/28 20:17:28;;;;;;;9.40;8.50;;;;;;;9.92;100.00;95422.31;7420133;19;20753;-94
2023/08/28 20:19:55;;;;;;;8.20;7.60;;;;;;;9.88;100.00;95428.59;7421883;19;20385;-94
2023/08/28 20:22:22;;;;;;;9.30;8.40;;;;;;;8.84;100.00;95267.97;7433305;19;20385;-95
2023/08/28 20:24:49;;;;;;;10.73;9.97;;;;;;;9.22;100.00;95315.94;7434996;19;20384;-96
2023/08/28 20:27:17;;;;;;;10.23;9.43;;;;;;;9.91;100.00;95418.16;7419796;19;20391;-93
2023/08/28 20:29:45;;;;;;;8.50;7.80;;;;;;;9.67;100.00;95384.81;7417584;19;20373;-94
2023/08/28 20:32:14;;;;;;;11.00;10.00;;;;;;;9.33;100.00;95364.41;7416539;19;20380;-95
2023/08/28 20:34:41;;;;;;;10.23;9.23;;;;;;;9.12;100.00;95322.47;7428970;19;20420;-94
2023/08/28 20:37:08;;;;;;;9.80;8.90;;;;;;;8.72;100.00;95262.78;7430585;19;20393;-93
2023/08/28 20:39:37;;;;;;;9.77;9.07;;;;;;;9.62;100.00;95402.78;7419848;19;20388;-94
2023/08/28 20:42:13;;;;;;;12.50;8.97;;;;;;;8.33;100.00;95185.41;7419409;19;20372;-94
2023/08/28 20:45:49;;;;;;;10.00;9.10;;;;;;;8.65;100.00;95228.34;7419924;19;20401;-93
2023/08/28 20:49:58;;;;;;;;;;;;;;;;;;;;;
2023/08/28 22:56:24;;;;;;;3.10;2.90;;;;;;;9.65;100.00;95309.72;7424544;19;20428;-96
2023/08/28 22:59:07;;;;;;;3.00;2.80;;;;;;;7.71;100.00;95021.88;7438000;19;20469;-95
